sensor_id;sensor_type;location;lat;lon;timestamp;P1;durP1;ratioP1;P2;durP2;ratioP2
11962;SDS011;62678;52.130;5.584;2023-10-08T00:01:42;26.90;;;7.43;;
11962;SDS011;62678;52.130;5.584;2023-10-08T00:04:10;29.17;;;7.63;;
11962;SDS011;62678;52.130;5.584;2023-10-08T00:06:37;24.88;;;7.68;;
11962;SDS011;62678;52.130;5.584;2023-10-08T00:09:04;28.10;;;7.38;;
11962;SDS011;62678;52.130;5.584;2023-10-08T00:11:36;24.80;;;7.60;;
11962;SDS011;62678;52.130;5.584;2023-10-08T00:14:06;23.58;;;7.82;;
11962;SDS011;62678;52.130;5.584;2023-10-08T00:16:35;29.35;;;8.30;;
11962;SDS011;62678;52.130;5.584;2023-10-08T00:19:05;27.30;;;7.28;;
11962;SDS011;62678;52.130;5.584;2023-10-08T00:21:38;29.20;;;7.60;;
11962;SDS011;62678;52.130;5.584;2023-10-08T00:24:06;27.05;;;7.22;;
11962;SDS011;62678;52.130;5.584;2023-10-08T00:26:34;30.33;;;7.78;;
11962;SDS011;62678;52.130;5.584;2023-10-08T00:29:07;36.83;;;8.82;;
11962;SDS011;62678;52.130;5.584;2023-10-08T00:31:41;26.60;;;8.57;;
11962;SDS011;62678;52.130;5.584;2023-10-08T00:34:10;29.60;;;7.85;;
11962;SDS011;62678;52.130;5.584;2023-10-08T00:36:39;31.52;;;8.68;;
11962;SDS011;62678;52.130;5.584;2023-10-08T00:39:07;29.70;;;8.00;;
11962;SDS011;62678;52.130;5.584;2023-10-08T00:41:39;31.13;;;8.77;;
11962;SDS011;62678;52.130;5.584;2023-10-08T00:44:09;26.27;;;8.48;;
11962;SDS011;62678;52.130;5.584;2023-10-08T00:46:40;31.38;;;8.43;;
11962;SDS011;62678;52.130;5.584;2023-10-08T00:49:13;27.80;;;8.02;;
11962;SDS011;62678;52.130;5.584;2023-10-08T00:51:58;33.33;;;8.77;;
11962;SDS011;62678;52.130;5.584;2023-10-08T00:54:29;27.45;;;8.63;;
11962;SDS011;62678;52.130;5.584;2023-10-08T00:56:58;36.20;;;9.38;;
11962;SDS011;62678;52.130;5.584;2023-10-08T00:59:32;26.60;;;9.30;;
11962;SDS011;62678;52.130;5.584;2023-10-08T01:02:08;24.42;;;7.75;;
11962;SDS011;62678;52.130;5.584;2023-10-08T01:04:39;29.13;;;8.15;;
11962;SDS011;62678;52.130;5.584;2023-10-08T01:07:09;26.88;;;8.30;;
11962;SDS011;62678;52.130;5.584;2023-10-08T01:09:39;28.05;;;9.02;;
11962;SDS011;62678;52.130;5.584;2023-10-08T01:12:08;23.63;;;8.35;;
11962;SDS011;62678;52.130;5.584;2023-10-08T01:14:41;29.02;;;9.25;;
11962;SDS011;62678;52.130;5.584;2023-10-08T01:17:09;26.20;;;9.05;;
11962;SDS011;62678;52.130;5.584;2023-10-08T01:19:39;30.92;;;9.65;;
11962;SDS011;62678;52.130;5.584;2023-10-08T01:22:11;28.00;;;8.88;;
11962;SDS011;62678;52.130;5.584;2023-10-08T01:24:43;31.02;;;9.63;;
11962;SDS011;62678;52.130;5.584;2023-10-08T01:27:13;30.05;;;9.10;;
11962;SDS011;62678;52.130;5.584;2023-10-08T01:29:45;32.40;;;9.43;;
11962;SDS011;62678;52.130;5.584;2023-10-08T01:32:13;29.80;;;9.65;;
11962;SDS011;62678;52.130;5.584;2023-10-08T01:34:41;28.20;;;9.48;;
11962;SDS011;62678;52.130;5.584;2023-10-08T01:37:11;27.60;;;9.80;;
11962;SDS011;62678;52.130;5.584;2023-10-08T01:39:42;31.40;;;9.98;;
11962;SDS011;62678;52.130;5.584;2023-10-08T01:42:10;33.50;;;10.13;;
11962;SDS011;62678;52.130;5.584;2023-10-08T01:44:42;25.00;;;10.55;;
11962;SDS011;62678;52.130;5.584;2023-10-08T01:47:12;25.88;;;9.13;;
11962;SDS011;62678;52.130;5.584;2023-10-08T01:49:41;29.02;;;10.07;;
11962;SDS011;62678;52.130;5.584;2023-10-08T01:52:09;30.35;;;10.52;;
11962;SDS011;62678;52.130;5.584;2023-10-08T01:54:44;29.88;;;10.35;;
11962;SDS011;62678;52.130;5.584;2023-10-08T01:57:12;32.70;;;10.68;;
11962;SDS011;62678;52.130;5.584;2023-10-08T01:59:39;32.65;;;10.43;;
11962;SDS011;62678;52.130;5.584;2023-10-08T02:02:06;30.73;;;10.40;;
11962;SDS011;62678;52.130;5.584;2023-10-08T02:04:34;34.17;;;11.15;;
11962;SDS011;62678;52.130;5.584;2023-10-08T02:07:01;30.77;;;10.68;;
11962;SDS011;62678;52.130;5.584;2023-10-08T02:09:33;34.28;;;11.20;;
11962;SDS011;62678;52.130;5.584;2023-10-08T02:12:02;33.47;;;11.57;;
11962;SDS011;62678;52.130;5.584;2023-10-08T02:14:29;35.35;;;11.20;;
11962;SDS011;62678;52.130;5.584;2023-10-08T02:16:57;38.70;;;10.52;;
11962;SDS011;62678;52.130;5.584;2023-10-08T02:19:28;29.30;;;11.15;;
11962;SDS011;62678;52.130;5.584;2023-10-08T02:21:55;31.33;;;11.00;;
11962;SDS011;62678;52.130;5.584;2023-10-08T02:24:24;33.80;;;12.48;;
11962;SDS011;62678;52.130;5.584;2023-10-08T02:26:52;36.78;;;11.48;;
11962;SDS011;62678;52.130;5.584;2023-10-08T02:29:23;32.53;;;10.70;;
11962;SDS011;62678;52.130;5.584;2023-10-08T02:31:51;36.30;;;10.75;;
11962;SDS011;62678;52.130;5.584;2023-10-08T02:34:19;30.42;;;10.30;;
11962;SDS011;62678;52.130;5.584;2023-10-08T02:36:45;38.00;;;10.82;;
11962;SDS011;62678;52.130;5.584;2023-10-08T02:39:13;29.80;;;10.25;;
11962;SDS011;62678;52.130;5.584;2023-10-08T02:41:42;33.20;;;10.38;;
11962;SDS011;62678;52.130;5.584;2023-10-08T02:44:11;32.92;;;10.80;;
11962;SDS011;62678;52.130;5.584;2023-10-08T02:46:41;29.08;;;10.52;;
11962;SDS011;62678;52.130;5.584;2023-10-08T02:49:10;34.45;;;10.70;;
11962;SDS011;62678;52.130;5.584;2023-10-08T02:51:38;33.13;;;11.63;;
11962;SDS011;62678;52.130;5.584;2023-10-08T02:54:06;29.85;;;10.88;;
11962;SDS011;62678;52.130;5.584;2023-10-08T02:56:42;34.30;;;10.27;;
11962;SDS011;62678;52.130;5.584;2023-10-08T02:59:10;29.27;;;10.90;;
11962;SDS011;62678;52.130;5.584;2023-10-08T03:01:38;29.48;;;11.90;;
11962;SDS011;62678;52.130;5.584;2023-10-08T03:04:07;31.80;;;11.38;;
11962;SDS011;62678;52.130;5.584;2023-10-08T03:06:44;24.77;;;11.05;;
11962;SDS011;62678;52.130;5.584;2023-10-08T03:09:21;29.67;;;11.02;;
11962;SDS011;62678;52.130;5.584;2023-10-08T03:11:51;34.42;;;12.18;;
11962;SDS011;62678;52.130;5.584;2023-10-08T03:14:19;32.13;;;11.88;;
11962;SDS011;62678;52.130;5.584;2023-10-08T03:16:50;30.63;;;11.48;;
11962;SDS011;62678;52.130;5.584;2023-10-08T03:19:18;24.92;;;11.27;;
11962;SDS011;62678;52.130;5.584;2023-10-08T03:21:46;38.83;;;11.23;;
11962;SDS011;62678;52.130;5.584;2023-10-08T03:24:21;30.08;;;11.40;;
11962;SDS011;62678;52.130;5.584;2023-10-08T03:27:02;33.40;;;11.65;;
11962;SDS011;62678;52.130;5.584;2023-10-08T03:29:40;32.67;;;12.00;;
11962;SDS011;62678;52.130;5.584;2023-10-08T03:32:09;33.67;;;12.55;;
11962;SDS011;62678;52.130;5.584;2023-10-08T03:34:43;28.50;;;11.98;;
11962;SDS011;62678;52.130;5.584;2023-10-08T03:37:11;26.83;;;11.65;;
11962;SDS011;62678;52.130;5.584;2023-10-08T03:39:45;33.58;;;11.95;;
11962;SDS011;62678;52.130;5.584;2023-10-08T03:42:25;35.15;;;13.63;;
11962;SDS011;62678;52.130;5.584;2023-10-08T03:44:58;35.33;;;12.70;;
11962;SDS011;62678;52.130;5.584;2023-10-08T03:47:36;35.38;;;12.73;;
11962;SDS011;62678;52.130;5.584;2023-10-08T03:50:04;31.17;;;13.40;;
11962;SDS011;62678;52.130;5.584;2023-10-08T03:52:33;31.05;;;13.20;;
11962;SDS011;62678;52.130;5.584;2023-10-08T03:55:02;46.05;;;13.50;;
11962;SDS011;62678;52.130;5.584;2023-10-08T03:57:32;33.03;;;12.88;;
11962;SDS011;62678;52.130;5.584;2023-10-08T04:00:16;31.63;;;12.98;;
11962;SDS011;62678;52.130;5.584;2023-10-08T04:02:45;34.47;;;13.10;;
11962;SDS011;62678;52.130;5.584;2023-10-08T04:05:20;30.48;;;12.75;;
11962;SDS011;62678;52.130;5.584;2023-10-08T04:07:52;35.85;;;13.50;;
11962;SDS011;62678;52.130;5.584;2023-10-08T04:10:34;32.03;;;13.73;;
11962;SDS011;62678;52.130;5.584;2023-10-08T04:13:25;36.88;;;14.60;;
11962;SDS011;62678;52.130;5.584;2023-10-08T04:15:53;42.72;;;13.88;;
11962;SDS011;62678;52.130;5.584;2023-10-08T04:18:21;39.72;;;13.15;;
11962;SDS011;62678;52.130;5.584;2023-10-08T04:20:48;29.88;;;12.93;;
11962;SDS011;62678;52.130;5.584;2023-10-08T04:23:30;27.80;;;10.35;;
11962;SDS011;62678;52.130;5.584;2023-10-08T04:25:57;33.42;;;10.80;;
11962;SDS011;62678;52.130;5.584;2023-10-08T04:28:24;35.80;;;10.02;;
11962;SDS011;62678;52.130;5.584;2023-10-08T04:30:53;26.13;;;9.55;;
11962;SDS011;62678;52.130;5.584;2023-10-08T04:33:27;35.67;;;10.93;;
11962;SDS011;62678;52.130;5.584;2023-10-08T04:35:58;28.85;;;9.73;;
11962;SDS011;62678;52.130;5.584;2023-10-08T04:38:27;35.28;;;10.45;;
11962;SDS011;62678;52.130;5.584;2023-10-08T04:40:54;20.17;;;8.98;;
11962;SDS011;62678;52.130;5.584;2023-10-08T04:43:26;29.52;;;8.32;;
11962;SDS011;62678;52.130;5.584;2023-10-08T04:45:55;20.00;;;7.65;;
11962;SDS011;62678;52.130;5.584;2023-10-08T04:48:23;24.92;;;7.25;;
11962;SDS011;62678;52.130;5.584;2023-10-08T04:50:54;19.05;;;6.57;;
11962;SDS011;62678;52.130;5.584;2023-10-08T04:53:27;19.98;;;6.85;;
11962;SDS011;62678;52.130;5.584;2023-10-08T04:56:02;18.10;;;6.43;;
11962;SDS011;62678;52.130;5.584;2023-10-08T04:58:31;19.25;;;5.72;;
11962;SDS011;62678;52.130;5.584;2023-10-08T05:01:02;17.70;;;5.60;;
11962;SDS011;62678;52.130;5.584;2023-10-08T05:03:43;11.93;;;4.63;;
11962;SDS011;62678;52.130;5.584;2023-10-08T05:06:33;14.85;;;4.63;;
11962;SDS011;62678;52.130;5.584;2023-10-08T05:09:25;14.80;;;4.47;;
11962;SDS011;62678;52.130;5.584;2023-10-08T05:12:06;11.48;;;4.20;;
11962;SDS011;62678;52.130;5.584;2023-10-08T05:14:41;13.35;;;4.50;;
11962;SDS011;62678;52.130;5.584;2023-10-08T05:17:21;12.13;;;3.80;;
11962;SDS011;62678;52.130;5.584;2023-10-08T05:19:47;10.55;;;3.53;;
11962;SDS011;62678;52.130;5.584;2023-10-08T05:22:43;9.73;;;4.07;;
11962;SDS011;62678;52.130;5.584;2023-10-08T05:25:09;12.85;;;3.60;;
11962;SDS011;62678;52.130;5.584;2023-10-08T05:27:51;9.75;;;3.60;;
11962;SDS011;62678;52.130;5.584;2023-10-08T05:30:24;8.55;;;3.80;;
11962;SDS011;62678;52.130;5.584;2023-10-08T05:33:03;11.25;;;3.97;;
11962;SDS011;62678;52.130;5.584;2023-10-08T05:35:39;10.57;;;4.13;;
11962;SDS011;62678;52.130;5.584;2023-10-08T05:38:21;11.63;;;3.55;;
11962;SDS011;62678;52.130;5.584;2023-10-08T05:40:48;9.90;;;4.18;;
11962;SDS011;62678;52.130;5.584;2023-10-08T05:43:30;7.28;;;3.40;;
11962;SDS011;62678;52.130;5.584;2023-10-08T05:46:20;8.30;;;2.80;;
11962;SDS011;62678;52.130;5.584;2023-10-08T05:49:12;5.93;;;2.60;;
11962;SDS011;62678;52.130;5.584;2023-10-08T05:51:57;10.57;;;3.28;;
11962;SDS011;62678;52.130;5.584;2023-10-08T05:54:43;8.25;;;2.97;;
11962;SDS011;62678;52.130;5.584;2023-10-08T05:57:33;4.13;;;2.30;;
11962;SDS011;62678;52.130;5.584;2023-10-08T06:00:04;9.82;;;2.80;;
11962;SDS011;62678;52.130;5.584;2023-10-08T06:03:01;6.53;;;2.42;;
11962;SDS011;62678;52.130;5.584;2023-10-08T06:05:57;7.53;;;2.55;;
11962;SDS011;62678;52.130;5.584;2023-10-08T06:08:47;7.05;;;2.15;;
11962;SDS011;62678;52.130;5.584;2023-10-08T06:11:48;7.90;;;2.50;;
11962;SDS011;62678;52.130;5.584;2023-10-08T06:14:38;7.07;;;2.25;;
11962;SDS011;62678;52.130;5.584;2023-10-08T06:17:34;6.75;;;2.53;;
11962;SDS011;62678;52.130;5.584;2023-10-08T06:20:22;7.38;;;2.60;;
11962;SDS011;62678;52.130;5.584;2023-10-08T06:22:52;7.35;;;2.65;;
11962;SDS011;62678;52.130;5.584;2023-10-08T06:25:25;7.35;;;2.42;;
11962;SDS011;62678;52.130;5.584;2023-10-08T06:27:54;7.88;;;2.40;;
11962;SDS011;62678;52.130;5.584;2023-10-08T06:30:22;10.57;;;2.70;;
11962;SDS011;62678;52.130;5.584;2023-10-08T06:32:54;7.40;;;2.72;;
11962;SDS011;62678;52.130;5.584;2023-10-08T06:35:21;6.35;;;2.45;;
11962;SDS011;62678;52.130;5.584;2023-10-08T06:37:52;6.43;;;2.95;;
11962;SDS011;62678;52.130;5.584;2023-10-08T06:40:24;8.20;;;2.80;;
11962;SDS011;62678;52.130;5.584;2023-10-08T06:43:12;3.65;;;2.58;;
11962;SDS011;62678;52.130;5.584;2023-10-08T06:45:43;5.97;;;2.55;;
11962;SDS011;62678;52.130;5.584;2023-10-08T06:48:11;5.15;;;2.92;;
11962;SDS011;62678;52.130;5.584;2023-10-08T06:50:45;7.25;;;3.17;;
11962;SDS011;62678;52.130;5.584;2023-10-08T06:53:13;18.80;;;12.73;;
11962;SDS011;62678;52.130;5.584;2023-10-08T06:55:43;7.78;;;6.85;;
11962;SDS011;62678;52.130;5.584;2023-10-08T06:58:14;5.53;;;3.75;;
11962;SDS011;62678;52.130;5.584;2023-10-08T07:00:42;6.25;;;3.33;;
11962;SDS011;62678;52.130;5.584;2023-10-08T07:03:14;6.20;;;3.83;;
11962;SDS011;62678;52.130;5.584;2023-10-08T07:05:43;3.90;;;3.50;;
11962;SDS011;62678;52.130;5.584;2023-10-08T07:08:19;5.45;;;3.58;;
11962;SDS011;62678;52.130;5.584;2023-10-08T07:10:48;3.95;;;3.33;;
11962;SDS011;62678;52.130;5.584;2023-10-08T07:13:17;8.50;;;3.72;;
11962;SDS011;62678;52.130;5.584;2023-10-08T07:15:47;6.07;;;4.13;;
11962;SDS011;62678;52.130;5.584;2023-10-08T07:18:14;4.32;;;3.60;;
11962;SDS011;62678;52.130;5.584;2023-10-08T07:20:49;4.18;;;3.47;;
11962;SDS011;62678;52.130;5.584;2023-10-08T07:23:19;4.28;;;3.88;;
11962;SDS011;62678;52.130;5.584;2023-10-08T07:25:52;4.25;;;3.65;;
11962;SDS011;62678;52.130;5.584;2023-10-08T07:28:26;4.40;;;4.00;;
11962;SDS011;62678;52.130;5.584;2023-10-08T07:30:55;4.53;;;3.90;;
11962;SDS011;62678;52.130;5.584;2023-10-08T07:33:22;4.50;;;4.10;;
11962;SDS011;62678;52.130;5.584;2023-10-08T07:36:01;6.28;;;4.28;;
11962;SDS011;62678;52.130;5.584;2023-10-08T07:38:37;4.50;;;4.10;;
11962;SDS011;62678;52.130;5.584;2023-10-08T07:41:04;5.93;;;4.38;;
11962;SDS011;62678;52.130;5.584;2023-10-08T07:43:32;4.68;;;4.00;;
11962;SDS011;62678;52.130;5.584;2023-10-08T07:46:00;4.55;;;4.15;;
11962;SDS011;62678;52.130;5.584;2023-10-08T07:48:27;7.35;;;4.10;;
11962;SDS011;62678;52.130;5.584;2023-10-08T07:50:56;5.10;;;4.53;;
11962;SDS011;62678;52.130;5.584;2023-10-08T07:53:23;5.13;;;4.55;;
11962;SDS011;62678;52.130;5.584;2023-10-08T07:56:02;4.03;;;3.63;;
11962;SDS011;62678;52.130;5.584;2023-10-08T07:58:33;3.65;;;3.33;;
11962;SDS011;62678;52.130;5.584;2023-10-08T08:01:02;4.15;;;3.63;;
11962;SDS011;62678;52.130;5.584;2023-10-08T08:03:31;5.03;;;3.17;;
11962;SDS011;62678;52.130;5.584;2023-10-08T08:06:01;3.55;;;3.25;;
11962;SDS011;62678;52.130;5.584;2023-10-08T08:08:31;4.70;;;3.15;;
11962;SDS011;62678;52.130;5.584;2023-10-08T08:10:58;3.80;;;2.70;;
11962;SDS011;62678;52.130;5.584;2023-10-08T08:13:30;3.05;;;2.35;;
11962;SDS011;62678;52.130;5.584;2023-10-08T08:15:59;3.85;;;2.90;;
11962;SDS011;62678;52.130;5.584;2023-10-08T08:18:35;3.17;;;2.88;;
11962;SDS011;62678;52.130;5.584;2023-10-08T08:21:03;6.47;;;2.90;;
11962;SDS011;62678;52.130;5.584;2023-10-08T08:23:30;3.33;;;2.80;;
11962;SDS011;62678;52.130;5.584;2023-10-08T08:25:57;4.18;;;2.70;;
11962;SDS011;62678;52.130;5.584;2023-10-08T08:28:38;6.40;;;3.40;;
11962;SDS011;62678;52.130;5.584;2023-10-08T08:31:06;3.85;;;2.92;;
11962;SDS011;62678;52.130;5.584;2023-10-08T08:33:42;7.50;;;2.90;;
11962;SDS011;62678;52.130;5.584;2023-10-08T08:36:27;4.78;;;2.90;;
11962;SDS011;62678;52.130;5.584;2023-10-08T08:38:55;3.65;;;2.80;;
11962;SDS011;62678;52.130;5.584;2023-10-08T08:41:22;4.20;;;3.03;;
11962;SDS011;62678;52.130;5.584;2023-10-08T08:43:50;3.38;;;2.53;;
11962;SDS011;62678;52.130;5.584;2023-10-08T08:46:27;4.60;;;2.83;;
11962;SDS011;62678;52.130;5.584;2023-10-08T08:48:57;7.88;;;2.88;;
11962;SDS011;62678;52.130;5.584;2023-10-08T08:51:29;4.50;;;2.78;;
11962;SDS011;62678;52.130;5.584;2023-10-08T08:53:56;4.55;;;2.60;;
11962;SDS011;62678;52.130;5.584;2023-10-08T08:56:25;5.53;;;2.92;;
11962;SDS011;62678;52.130;5.584;2023-10-08T08:58:55;4.05;;;2.30;;
11962;SDS011;62678;52.130;5.584;2023-10-08T09:01:26;4.68;;;2.80;;
11962;SDS011;62678;52.130;5.584;2023-10-08T09:03:58;4.57;;;2.58;;
11962;SDS011;62678;52.130;5.584;2023-10-08T09:06:30;4.40;;;2.70;;
11962;SDS011;62678;52.130;5.584;2023-10-08T09:08:58;3.80;;;2.60;;
11962;SDS011;62678;52.130;5.584;2023-10-08T09:11:40;3.80;;;2.58;;
11962;SDS011;62678;52.130;5.584;2023-10-08T09:14:09;8.55;;;2.95;;
11962;SDS011;62678;52.130;5.584;2023-10-08T09:16:37;2.67;;;2.47;;
11962;SDS011;62678;52.130;5.584;2023-10-08T09:19:04;3.15;;;2.40;;
11962;SDS011;62678;52.130;5.584;2023-10-08T09:21:37;3.55;;;2.67;;
11962;SDS011;62678;52.130;5.584;2023-10-08T09:24:04;3.90;;;2.83;;
11962;SDS011;62678;52.130;5.584;2023-10-08T09:26:36;4.13;;;3.03;;
11962;SDS011;62678;52.130;5.584;2023-10-08T09:29:05;4.35;;;2.72;;
11962;SDS011;62678;52.130;5.584;2023-10-08T09:31:35;4.38;;;2.92;;
11962;SDS011;62678;52.130;5.584;2023-10-08T09:34:03;3.58;;;3.20;;
11962;SDS011;62678;52.130;5.584;2023-10-08T09:36:30;3.63;;;3.20;;
11962;SDS011;62678;52.130;5.584;2023-10-08T09:38:57;4.15;;;3.15;;
11962;SDS011;62678;52.130;5.584;2023-10-08T09:41:29;3.10;;;2.80;;
11962;SDS011;62678;52.130;5.584;2023-10-08T09:43:58;3.55;;;3.03;;
11962;SDS011;62678;52.130;5.584;2023-10-08T09:46:28;3.17;;;2.88;;
11962;SDS011;62678;52.130;5.584;2023-10-08T09:49:00;4.28;;;3.22;;
11962;SDS011;62678;52.130;5.584;2023-10-08T09:51:32;3.83;;;2.80;;
11962;SDS011;62678;52.130;5.584;2023-10-08T09:54:05;3.67;;;3.28;;
11962;SDS011;62678;52.130;5.584;2023-10-08T09:56:39;3.22;;;2.83;;
11962;SDS011;62678;52.130;5.584;2023-10-08T09:59:08;3.25;;;2.95;;
11962;SDS011;62678;52.130;5.584;2023-10-08T10:01:36;4.78;;;2.75;;
11962;SDS011;62678;52.130;5.584;2023-10-08T10:04:06;4.38;;;2.75;;
11962;SDS011;62678;52.130;5.584;2023-10-08T10:06:35;4.43;;;3.20;;
11962;SDS011;62678;52.130;5.584;2023-10-08T10:09:05;5.97;;;3.40;;
11962;SDS011;62678;52.130;5.584;2023-10-08T10:11:40;4.28;;;2.97;;
11962;SDS011;62678;52.130;5.584;2023-10-08T10:14:12;4.00;;;3.20;;
11962;SDS011;62678;52.130;5.584;2023-10-08T10:16:39;4.90;;;3.20;;
11962;SDS011;62678;52.130;5.584;2023-10-08T10:19:17;5.35;;;3.03;;
11962;SDS011;62678;52.130;5.584;2023-10-08T10:21:45;3.20;;;2.90;;
11962;SDS011;62678;52.130;5.584;2023-10-08T10:24:21;3.72;;;2.80;;
11962;SDS011;62678;52.130;5.584;2023-10-08T10:27:06;4.53;;;3.00;;
11962;SDS011;62678;52.130;5.584;2023-10-08T10:29:37;4.82;;;3.42;;
11962;SDS011;62678;52.130;5.584;2023-10-08T10:32:04;4.15;;;3.58;;
11962;SDS011;62678;52.130;5.584;2023-10-08T10:34:33;3.70;;;3.40;;
11962;SDS011;62678;52.130;5.584;2023-10-08T10:37:05;3.80;;;3.40;;
11962;SDS011;62678;52.130;5.584;2023-10-08T10:39:49;4.85;;;3.20;;
11962;SDS011;62678;52.130;5.584;2023-10-08T10:42:18;3.90;;;3.00;;
11962;SDS011;62678;52.130;5.584;2023-10-08T10:44:46;4.82;;;2.80;;
11962;SDS011;62678;52.130;5.584;2023-10-08T10:47:18;4.32;;;2.80;;
11962;SDS011;62678;52.130;5.584;2023-10-08T10:50:09;4.50;;;2.67;;
11962;SDS011;62678;52.130;5.584;2023-10-08T10:52:56;3.88;;;2.63;;
11962;SDS011;62678;52.130;5.584;2023-10-08T10:55:23;2.95;;;2.33;;
11962;SDS011;62678;52.130;5.584;2023-10-08T10:57:58;4.18;;;2.83;;
11962;SDS011;62678;52.130;5.584;2023-10-08T11:00:36;6.90;;;2.58;;
11962;SDS011;62678;52.130;5.584;2023-10-08T11:03:24;4.82;;;2.55;;
11962;SDS011;62678;52.130;5.584;2023-10-08T11:05:57;6.20;;;2.50;;
11962;SDS011;62678;52.130;5.584;2023-10-08T11:08:31;3.63;;;2.50;;
11962;SDS011;62678;52.130;5.584;2023-10-08T11:11:01;3.92;;;2.40;;
11962;SDS011;62678;52.130;5.584;2023-10-08T11:13:32;3.10;;;2.60;;
11962;SDS011;62678;52.130;5.584;2023-10-08T11:16:04;2.47;;;2.28;;
11962;SDS011;62678;52.130;5.584;2023-10-08T11:18:34;5.10;;;2.90;;
11962;SDS011;62678;52.130;5.584;2023-10-08T11:21:09;3.35;;;2.90;;
11962;SDS011;62678;52.130;5.584;2023-10-08T11:23:43;2.95;;;2.63;;
11962;SDS011;62678;52.130;5.584;2023-10-08T11:26:18;5.97;;;3.70;;
11962;SDS011;62678;52.130;5.584;2023-10-08T11:28:47;5.03;;;4.00;;
11962;SDS011;62678;52.130;5.584;2023-10-08T11:31:14;6.60;;;5.28;;
11962;SDS011;62678;52.130;5.584;2023-10-08T11:33:45;5.90;;;4.90;;
11962;SDS011;62678;52.130;5.584;2023-10-08T11:36:21;4.10;;;3.47;;
11962;SDS011;62678;52.130;5.584;2023-10-08T11:38:53;5.03;;;3.60;;
11962;SDS011;62678;52.130;5.584;2023-10-08T11:41:26;5.53;;;3.50;;
11962;SDS011;62678;52.130;5.584;2023-10-08T11:43:54;5.10;;;3.75;;
11962;SDS011;62678;52.130;5.584;2023-10-08T11:46:23;3.63;;;3.33;;
11962;SDS011;62678;52.130;5.584;2023-10-08T11:48:58;3.95;;;3.20;;
11962;SDS011;62678;52.130;5.584;2023-10-08T11:51:30;5.72;;;4.05;;
11962;SDS011;62678;52.130;5.584;2023-10-08T11:53:59;5.03;;;3.30;;
11962;SDS011;62678;52.130;5.584;2023-10-08T11:56:26;4.20;;;3.10;;
11962;SDS011;62678;52.130;5.584;2023-10-08T11:58:54;3.40;;;3.10;;
11962;SDS011;62678;52.130;5.584;2023-10-08T12:01:23;4.65;;;3.15;;
11962;SDS011;62678;52.130;5.584;2023-10-08T12:03:52;3.80;;;3.28;;
11962;SDS011;62678;52.130;5.584;2023-10-08T12:06:24;4.22;;;2.92;;
11962;SDS011;62678;52.130;5.584;2023-10-08T12:08:56;4.07;;;2.42;;
11962;SDS011;62678;52.130;5.584;2023-10-08T12:11:23;2.80;;;2.30;;
11962;SDS011;62678;52.130;5.584;2023-10-08T12:13:56;2.67;;;2.47;;
11962;SDS011;62678;52.130;5.584;2023-10-08T12:16:24;3.03;;;1.98;;
11962;SDS011;62678;52.130;5.584;2023-10-08T12:18:54;2.28;;;1.63;;
11962;SDS011;62678;52.130;5.584;2023-10-08T12:21:24;3.17;;;1.73;;
11962;SDS011;62678;52.130;5.584;2023-10-08T12:23:51;2.10;;;1.70;;
11962;SDS011;62678;52.130;5.584;2023-10-08T12:26:21;3.05;;;1.63;;
11962;SDS011;62678;52.130;5.584;2023-10-08T12:28:49;5.25;;;1.83;;
11962;SDS011;62678;52.130;5.584;2023-10-08T12:31:17;2.60;;;1.60;;
11962;SDS011;62678;52.130;5.584;2023-10-08T12:33:47;2.88;;;1.45;;
11962;SDS011;62678;52.130;5.584;2023-10-08T12:36:18;7.70;;;1.48;;
11962;SDS011;62678;52.130;5.584;2023-10-08T12:38:48;3.15;;;1.17;;
11962;SDS011;62678;52.130;5.584;2023-10-08T12:41:24;4.70;;;1.30;;
11962;SDS011;62678;52.130;5.584;2023-10-08T12:43:52;3.28;;;0.98;;
11962;SDS011;62678;52.130;5.584;2023-10-08T12:46:19;3.72;;;1.10;;
11962;SDS011;62678;52.130;5.584;2023-10-08T12:48:49;1.98;;;1.00;;
11962;SDS011;62678;52.130;5.584;2023-10-08T12:51:19;3.47;;;1.08;;
11962;SDS011;62678;52.130;5.584;2023-10-08T12:53:48;4.97;;;3.72;;
11962;SDS011;62678;52.130;5.584;2023-10-08T12:56:25;4.72;;;1.90;;
11962;SDS011;62678;52.130;5.584;2023-10-08T12:59:00;3.10;;;1.20;;
11962;SDS011;62678;52.130;5.584;2023-10-08T13:01:30;6.35;;;1.42;;
11962;SDS011;62678;52.130;5.584;2023-10-08T13:03:57;2.58;;;1.05;;
11962;SDS011;62678;52.130;5.584;2023-10-08T13:06:27;4.80;;;1.02;;
11962;SDS011;62678;52.130;5.584;2023-10-08T13:08:54;3.30;;;0.90;;
11962;SDS011;62678;52.130;5.584;2023-10-08T13:11:22;3.53;;;0.93;;
11962;SDS011;62678;52.130;5.584;2023-10-08T13:13:54;2.55;;;0.80;;
11962;SDS011;62678;52.130;5.584;2023-10-08T13:16:22;5.43;;;1.20;;
11962;SDS011;62678;52.130;5.584;2023-10-08T13:18:51;4.22;;;1.02;;
11962;SDS011;62678;52.130;5.584;2023-10-08T13:21:21;3.25;;;1.20;;
11962;SDS011;62678;52.130;5.584;2023-10-08T13:23:50;2.67;;;1.00;;
11962;SDS011;62678;52.130;5.584;2023-10-08T13:26:17;5.45;;;1.13;;
11962;SDS011;62678;52.130;5.584;2023-10-08T13:28:49;2.50;;;1.00;;
11962;SDS011;62678;52.130;5.584;2023-10-08T13:31:16;4.10;;;1.02;;
11962;SDS011;62678;52.130;5.584;2023-10-08T13:33:44;3.70;;;1.45;;
11962;SDS011;62678;52.130;5.584;2023-10-08T13:36:14;4.00;;;1.70;;
11962;SDS011;62678;52.130;5.584;2023-10-08T13:38:42;5.32;;;1.70;;
11962;SDS011;62678;52.130;5.584;2023-10-08T13:41:11;3.33;;;1.50;;
11962;SDS011;62678;52.130;5.584;2023-10-08T13:43:41;5.07;;;1.77;;
11962;SDS011;62678;52.130;5.584;2023-10-08T13:46:12;3.20;;;1.70;;
11962;SDS011;62678;52.130;5.584;2023-10-08T13:48:41;2.60;;;1.58;;
11962;SDS011;62678;52.130;5.584;2023-10-08T13:51:11;5.20;;;2.10;;
11962;SDS011;62678;52.130;5.584;2023-10-08T13:53:40;4.65;;;1.70;;
11962;SDS011;62678;52.130;5.584;2023-10-08T13:56:10;3.78;;;1.95;;
11962;SDS011;62678;52.130;5.584;2023-10-08T13:58:39;5.47;;;2.50;;
11962;SDS011;62678;52.130;5.584;2023-10-08T14:01:13;6.82;;;2.60;;
11962;SDS011;62678;52.130;5.584;2023-10-08T14:03:45;5.22;;;1.98;;
11962;SDS011;62678;52.130;5.584;2023-10-08T14:06:18;5.95;;;2.60;;
11962;SDS011;62678;52.130;5.584;2023-10-08T14:08:47;3.72;;;2.30;;
11962;SDS011;62678;52.130;5.584;2023-10-08T14:11:17;6.75;;;2.40;;
11962;SDS011;62678;52.130;5.584;2023-10-08T14:13:48;4.07;;;2.22;;
11962;SDS011;62678;52.130;5.584;2023-10-08T14:16:17;6.90;;;2.10;;
11962;SDS011;62678;52.130;5.584;2023-10-08T14:18:48;5.57;;;2.70;;
11962;SDS011;62678;52.130;5.584;2023-10-08T14:21:19;4.75;;;2.42;;
11962;SDS011;62678;52.130;5.584;2023-10-08T14:23:48;5.43;;;2.50;;
11962;SDS011;62678;52.130;5.584;2023-10-08T14:26:17;4.80;;;2.00;;
11962;SDS011;62678;52.130;5.584;2023-10-08T14:28:47;4.60;;;2.28;;
11962;SDS011;62678;52.130;5.584;2023-10-08T14:31:19;3.35;;;2.35;;
11962;SDS011;62678;52.130;5.584;2023-10-08T14:33:50;6.07;;;2.53;;
11962;SDS011;62678;52.130;5.584;2023-10-08T14:36:30;4.53;;;2.13;;
11962;SDS011;62678;52.130;5.584;2023-10-08T14:39:12;3.83;;;2.22;;
11962;SDS011;62678;52.130;5.584;2023-10-08T14:41:56;4.47;;;2.47;;
11962;SDS011;62678;52.130;5.584;2023-10-08T14:44:41;9.07;;;3.05;;
11962;SDS011;62678;52.130;5.584;2023-10-08T14:47:09;6.00;;;2.85;;
11962;SDS011;62678;52.130;5.584;2023-10-08T14:49:36;4.55;;;2.80;;
11962;SDS011;62678;52.130;5.584;2023-10-08T14:52:03;4.97;;;3.17;;
11962;SDS011;62678;52.130;5.584;2023-10-08T14:54:31;5.53;;;3.30;;
11962;SDS011;62678;52.130;5.584;2023-10-08T14:56:58;3.58;;;2.88;;
11962;SDS011;62678;52.130;5.584;2023-10-08T14:59:28;4.63;;;2.97;;
11962;SDS011;62678;52.130;5.584;2023-10-08T15:01:55;4.25;;;2.70;;
11962;SDS011;62678;52.130;5.584;2023-10-08T15:04:24;4.65;;;2.70;;
11962;SDS011;62678;52.130;5.584;2023-10-08T15:06:54;6.88;;;2.90;;
11962;SDS011;62678;52.130;5.584;2023-10-08T15:09:22;4.70;;;3.03;;